sensor_id;sensor_type;location;lat;lon;timestamp;P1;durP1;ratioP1;P2;durP2;ratioP2
21999;SDS011;11164;48.818;2.322;2024-01-15T00:01:40;22.23;;;9.82;;
21999;SDS011;11164;48.818;2.322;2024-01-15T00:04:07;22.42;;;9.57;;
21999;SDS011;11164;48.818;2.322;2024-01-15T00:06:32;21.83;;;10.32;;
21999;SDS011;11164;48.818;2.322;2024-01-15T00:08:58;23.48;;;10.70;;
21999;SDS011;11164;48.818;2.322;2024-01-15T00:11:23;25.60;;;9.88;;
21999;SDS011;11164;48.818;2.322;2024-01-15T00:13:49;23.27;;;10.73;;
21999;SDS011;11164;48.818;2.322;2024-01-15T00:16:14;22.45;;;9.98;;
21999;SDS011;11164;48.818;2.322;2024-01-15T00:18:39;20.33;;;9.70;;
21999;SDS011;11164;48.818;2.322;2024-01-15T00:21:05;22.73;;;10.27;;
21999;SDS011;11164;48.818;2.322;2024-01-15T00:23:30;21.60;;;9.55;;
21999;SDS011;11164;48.818;2.322;2024-01-15T00:25:55;21.50;;;10.55;;
21999;SDS011;11164;48.818;2.322;2024-01-15T00:28:22;21.60;;;10.77;;
21999;SDS011;11164;48.818;2.322;2024-01-15T00:30:47;23.85;;;10.88;;
21999;SDS011;11164;48.818;2.322;2024-01-15T00:33:12;22.20;;;10.77;;
21999;SDS011;11164;48.818;2.322;2024-01-15T00:35:39;22.02;;;10.63;;
21999;SDS011;11164;48.818;2.322;2024-01-15T00:38:05;26.20;;;10.73;;
21999;SDS011;11164;48.818;2.322;2024-01-15T00:40:30;24.55;;;10.95;;
21999;SDS011;11164;48.818;2.322;2024-01-15T00:42:55;23.15;;;10.38;;
21999;SDS011;11164;48.818;2.322;2024-01-15T00:45:20;23.20;;;11.02;;
21999;SDS011;11164;48.818;2.322;2024-01-15T00:47:46;20.90;;;9.85;;
21999;SDS011;11164;48.818;2.322;2024-01-15T00:50:11;21.10;;;9.77;;
21999;SDS011;11164;48.818;2.322;2024-01-15T00:52:36;21.65;;;9.60;;
21999;SDS011;11164;48.818;2.322;2024-01-15T00:55:02;21.10;;;10.00;;
21999;SDS011;11164;48.818;2.322;2024-01-15T00:57:27;21.27;;;9.93;;
21999;SDS011;11164;48.818;2.322;2024-01-15T00:59:53;23.52;;;10.43;;
21999;SDS011;11164;48.818;2.322;2024-01-15T01:02:18;23.27;;;10.27;;
21999;SDS011;11164;48.818;2.322;2024-01-15T01:04:44;22.58;;;10.90;;
21999;SDS011;11164;48.818;2.322;2024-01-15T01:07:09;20.67;;;10.20;;
21999;SDS011;11164;48.818;2.322;2024-01-15T01:09:34;22.38;;;10.82;;
21999;SDS011;11164;48.818;2.322;2024-01-15T01:11:59;21.70;;;10.27;;
21999;SDS011;11164;48.818;2.322;2024-01-15T01:14:25;22.90;;;10.57;;
21999;SDS011;11164;48.818;2.322;2024-01-15T01:16:50;23.23;;;11.35;;
21999;SDS011;11164;48.818;2.322;2024-01-15T01:19:15;19.08;;;9.70;;
21999;SDS011;11164;48.818;2.322;2024-01-15T01:21:41;20.92;;;10.43;;
21999;SDS011;11164;48.818;2.322;2024-01-15T01:24:07;23.88;;;11.10;;
21999;SDS011;11164;48.818;2.322;2024-01-15T01:26:32;22.38;;;10.38;;
21999;SDS011;11164;48.818;2.322;2024-01-15T01:28:57;23.13;;;10.70;;
21999;SDS011;11164;48.818;2.322;2024-01-15T01:31:23;23.35;;;11.15;;
21999;SDS011;11164;48.818;2.322;2024-01-15T01:33:49;22.17;;;10.85;;
21999;SDS011;11164;48.818;2.322;2024-01-15T01:36:14;25.50;;;11.43;;
21999;SDS011;11164;48.818;2.322;2024-01-15T01:38:40;22.73;;;10.50;;
21999;SDS011;11164;48.818;2.322;2024-01-15T01:41:05;24.77;;;10.95;;
21999;SDS011;11164;48.818;2.322;2024-01-15T01:43:31;23.98;;;10.45;;
21999;SDS011;11164;48.818;2.322;2024-01-15T01:45:56;24.02;;;9.80;;
21999;SDS011;11164;48.818;2.322;2024-01-15T01:48:23;21.20;;;9.57;;
21999;SDS011;11164;48.818;2.322;2024-01-15T01:50:51;23.60;;;10.75;;
21999;SDS011;11164;48.818;2.322;2024-01-15T01:53:22;21.35;;;10.05;;
21999;SDS011;11164;48.818;2.322;2024-01-15T01:55:48;22.70;;;10.90;;
21999;SDS011;11164;48.818;2.322;2024-01-15T01:58:15;20.15;;;9.15;;
21999;SDS011;11164;48.818;2.322;2024-01-15T02:00:40;20.20;;;9.57;;
21999;SDS011;11164;48.818;2.322;2024-01-15T02:03:06;22.58;;;10.45;;
21999;SDS011;11164;48.818;2.322;2024-01-15T02:05:31;23.05;;;10.68;;
21999;SDS011;11164;48.818;2.322;2024-01-15T02:07:57;20.20;;;8.93;;
21999;SDS011;11164;48.818;2.322;2024-01-15T02:10:22;22.65;;;10.38;;
21999;SDS011;11164;48.818;2.322;2024-01-15T02:12:47;20.52;;;10.20;;
21999;SDS011;11164;48.818;2.322;2024-01-15T02:15:13;20.33;;;10.13;;
21999;SDS011;11164;48.818;2.322;2024-01-15T02:18:21;21.40;;;10.43;;
21999;SDS011;11164;48.818;2.322;2024-01-15T02:20:29;21.85;;;9.95;;
21999;SDS011;11164;48.818;2.322;2024-01-15T02:23:05;20.08;;;10.07;;
21999;SDS011;11164;48.818;2.322;2024-01-15T02:25:40;21.38;;;10.30;;
21999;SDS011;11164;48.818;2.322;2024-01-15T02:28:07;22.80;;;10.10;;
21999;SDS011;11164;48.818;2.322;2024-01-15T02:30:35;21.35;;;9.90;;
21999;SDS011;11164;48.818;2.322;2024-01-15T02:33:03;20.83;;;9.82;;
21999;SDS011;11164;48.818;2.322;2024-01-15T02:35:28;22.17;;;9.93;;
21999;SDS011;11164;48.818;2.322;2024-01-15T02:37:54;20.42;;;10.23;;
21999;SDS011;11164;48.818;2.322;2024-01-15T02:40:19;19.75;;;9.20;;
21999;SDS011;11164;48.818;2.322;2024-01-15T02:42:44;18.90;;;9.48;;
21999;SDS011;11164;48.818;2.322;2024-01-15T02:45:10;20.75;;;9.65;;
21999;SDS011;11164;48.818;2.322;2024-01-15T02:47:35;22.58;;;9.43;;
21999;SDS011;11164;48.818;2.322;2024-01-15T02:50:00;20.98;;;9.30;;
21999;SDS011;11164;48.818;2.322;2024-01-15T02:52:25;20.25;;;9.35;;
21999;SDS011;11164;48.818;2.322;2024-01-15T02:54:51;20.95;;;9.25;;
21999;SDS011;11164;48.818;2.322;2024-01-15T02:57:16;17.45;;;8.38;;
21999;SDS011;11164;48.818;2.322;2024-01-15T02:59:41;18.88;;;9.60;;
21999;SDS011;11164;48.818;2.322;2024-01-15T03:02:07;20.25;;;9.43;;
21999;SDS011;11164;48.818;2.322;2024-01-15T03:04:32;18.50;;;9.43;;
21999;SDS011;11164;48.818;2.322;2024-01-15T03:06:57;18.70;;;9.10;;
21999;SDS011;11164;48.818;2.322;2024-01-15T03:09:23;22.83;;;9.93;;
21999;SDS011;11164;48.818;2.322;2024-01-15T03:11:48;18.80;;;8.90;;
21999;SDS011;11164;48.818;2.322;2024-01-15T03:14:13;16.48;;;6.97;;
21999;SDS011;11164;48.818;2.322;2024-01-15T03:16:39;17.10;;;8.05;;
21999;SDS011;11164;48.818;2.322;2024-01-15T03:19:04;16.67;;;8.07;;
21999;SDS011;11164;48.818;2.322;2024-01-15T03:21:29;16.70;;;9.05;;
21999;SDS011;11164;48.818;2.322;2024-01-15T03:23:54;16.73;;;8.63;;
21999;SDS011;11164;48.818;2.322;2024-01-15T03:26:20;19.50;;;8.90;;
21999;SDS011;11164;48.818;2.322;2024-01-15T03:28:45;17.27;;;7.70;;
21999;SDS011;11164;48.818;2.322;2024-01-15T03:31:10;17.83;;;8.98;;
21999;SDS011;11164;48.818;2.322;2024-01-15T03:33:36;19.05;;;8.70;;
21999;SDS011;11164;48.818;2.322;2024-01-15T03:36:01;17.45;;;7.88;;
21999;SDS011;11164;48.818;2.322;2024-01-15T03:38:27;18.40;;;8.18;;
21999;SDS011;11164;48.818;2.322;2024-01-15T03:40:53;19.23;;;8.82;;
21999;SDS011;11164;48.818;2.322;2024-01-15T03:43:18;16.50;;;8.50;;
21999;SDS011;11164;48.818;2.322;2024-01-15T03:45:44;20.25;;;9.25;;
21999;SDS011;11164;48.818;2.322;2024-01-15T03:48:09;19.42;;;9.48;;
21999;SDS011;11164;48.818;2.322;2024-01-15T03:50:34;18.90;;;8.50;;
21999;SDS011;11164;48.818;2.322;2024-01-15T03:53:00;17.42;;;8.18;;
21999;SDS011;11164;48.818;2.322;2024-01-15T03:55:25;19.30;;;8.60;;
21999;SDS011;11164;48.818;2.322;2024-01-15T03:57:50;17.10;;;8.20;;
21999;SDS011;11164;48.818;2.322;2024-01-15T04:00:16;17.33;;;9.10;;
21999;SDS011;11164;48.818;2.322;2024-01-15T04:02:42;18.00;;;9.02;;
21999;SDS011;11164;48.818;2.322;2024-01-15T04:05:09;15.70;;;8.30;;
21999;SDS011;11164;48.818;2.322;2024-01-15T04:07:34;20.95;;;8.95;;
21999;SDS011;11164;48.818;2.322;2024-01-15T04:09:59;21.45;;;8.30;;
21999;SDS011;11164;48.818;2.322;2024-01-15T04:12:24;20.63;;;9.90;;
21999;SDS011;11164;48.818;2.322;2024-01-15T04:14:50;16.95;;;7.85;;
21999;SDS011;11164;48.818;2.322;2024-01-15T04:17:15;16.02;;;7.25;;
21999;SDS011;11164;48.818;2.322;2024-01-15T04:19:43;18.67;;;7.85;;
21999;SDS011;11164;48.818;2.322;2024-01-15T04:22:09;17.92;;;8.02;;
21999;SDS011;11164;48.818;2.322;2024-01-15T04:24:34;19.73;;;8.43;;
21999;SDS011;11164;48.818;2.322;2024-01-15T04:26:59;17.75;;;7.53;;
21999;SDS011;11164;48.818;2.322;2024-01-15T04:29:25;18.05;;;8.23;;
21999;SDS011;11164;48.818;2.322;2024-01-15T04:31:51;17.30;;;8.15;;
21999;SDS011;11164;48.818;2.322;2024-01-15T04:34:17;16.45;;;7.95;;
21999;SDS011;11164;48.818;2.322;2024-01-15T04:36:43;17.35;;;8.48;;
21999;SDS011;11164;48.818;2.322;2024-01-15T04:39:08;17.05;;;7.88;;
21999;SDS011;11164;48.818;2.322;2024-01-15T04:41:34;16.92;;;8.23;;
21999;SDS011;11164;48.818;2.322;2024-01-15T04:43:59;18.52;;;8.60;;
21999;SDS011;11164;48.818;2.322;2024-01-15T04:46:26;15.80;;;7.78;;
21999;SDS011;11164;48.818;2.322;2024-01-15T04:48:52;16.83;;;7.82;;
21999;SDS011;11164;48.818;2.322;2024-01-15T04:51:18;17.77;;;7.72;;
21999;SDS011;11164;48.818;2.322;2024-01-15T04:53:44;18.20;;;7.57;;
21999;SDS011;11164;48.818;2.322;2024-01-15T04:56:10;15.85;;;7.65;;
21999;SDS011;11164;48.818;2.322;2024-01-15T04:58:35;13.73;;;5.75;;
21999;SDS011;11164;48.818;2.322;2024-01-15T05:01:00;17.15;;;6.55;;
21999;SDS011;11164;48.818;2.322;2024-01-15T05:03:25;18.25;;;7.35;;
21999;SDS011;11164;48.818;2.322;2024-01-15T05:05:51;15.63;;;6.03;;
21999;SDS011;11164;48.818;2.322;2024-01-15T05:08:17;16.50;;;7.55;;
21999;SDS011;11164;48.818;2.322;2024-01-15T05:10:42;13.68;;;7.32;;
21999;SDS011;11164;48.818;2.322;2024-01-15T05:13:07;17.63;;;7.93;;
21999;SDS011;11164;48.818;2.322;2024-01-15T05:15:33;18.52;;;7.95;;
21999;SDS011;11164;48.818;2.322;2024-01-15T05:17:58;16.10;;;7.18;;
21999;SDS011;11164;48.818;2.322;2024-01-15T05:20:23;18.38;;;7.45;;
21999;SDS011;11164;48.818;2.322;2024-01-15T05:22:49;13.77;;;6.88;;
21999;SDS011;11164;48.818;2.322;2024-01-15T05:25:14;16.88;;;5.88;;
21999;SDS011;11164;48.818;2.322;2024-01-15T05:27:39;15.65;;;6.72;;
21999;SDS011;11164;48.818;2.322;2024-01-15T05:30:05;13.88;;;6.40;;
21999;SDS011;11164;48.818;2.322;2024-01-15T05:32:31;15.38;;;6.68;;
21999;SDS011;11164;48.818;2.322;2024-01-15T05:34:57;9.57;;;3.90;;
21999;SDS011;11164;48.818;2.322;2024-01-15T05:37:22;14.65;;;6.45;;
21999;SDS011;11164;48.818;2.322;2024-01-15T05:39:47;14.50;;;6.40;;
21999;SDS011;11164;48.818;2.322;2024-01-15T05:42:12;16.05;;;7.10;;
21999;SDS011;11164;48.818;2.322;2024-01-15T05:44:39;14.50;;;6.40;;
21999;SDS011;11164;48.818;2.322;2024-01-15T05:47:04;16.83;;;7.95;;
21999;SDS011;11164;48.818;2.322;2024-01-15T05:49:30;14.35;;;6.40;;
21999;SDS011;11164;48.818;2.322;2024-01-15T05:51:55;13.77;;;6.78;;
21999;SDS011;11164;48.818;2.322;2024-01-15T05:54:20;15.32;;;6.47;;
21999;SDS011;11164;48.818;2.322;2024-01-15T05:56:46;14.18;;;5.20;;
21999;SDS011;11164;48.818;2.322;2024-01-15T05:59:11;12.55;;;5.47;;
21999;SDS011;11164;48.818;2.322;2024-01-15T06:01:36;13.18;;;5.93;;
21999;SDS011;11164;48.818;2.322;2024-01-15T06:04:02;14.60;;;6.25;;
21999;SDS011;11164;48.818;2.322;2024-01-15T06:06:27;13.35;;;6.03;;
21999;SDS011;11164;48.818;2.322;2024-01-15T06:08:52;13.40;;;5.60;;
21999;SDS011;11164;48.818;2.322;2024-01-15T06:11:18;13.95;;;5.57;;
21999;SDS011;11164;48.818;2.322;2024-01-15T06:13:43;13.40;;;5.82;;
21999;SDS011;11164;48.818;2.322;2024-01-15T06:16:15;13.25;;;5.68;;
21999;SDS011;11164;48.818;2.322;2024-01-15T06:18:45;14.35;;;6.32;;
21999;SDS011;11164;48.818;2.322;2024-01-15T06:21:10;12.40;;;5.78;;
21999;SDS011;11164;48.818;2.322;2024-01-15T06:23:37;14.20;;;5.90;;
21999;SDS011;11164;48.818;2.322;2024-01-15T06:26:03;13.45;;;5.85;;
21999;SDS011;11164;48.818;2.322;2024-01-15T06:28:29;14.18;;;5.38;;
21999;SDS011;11164;48.818;2.322;2024-01-15T06:30:55;14.65;;;6.70;;
21999;SDS011;11164;48.818;2.322;2024-01-15T06:33:20;14.93;;;6.78;;
21999;SDS011;11164;48.818;2.322;2024-01-15T06:35:45;17.60;;;6.25;;
21999;SDS011;11164;48.818;2.322;2024-01-15T06:38:11;19.85;;;6.90;;
21999;SDS011;11164;48.818;2.322;2024-01-15T06:40:36;16.17;;;7.00;;
21999;SDS011;11164;48.818;2.322;2024-01-15T06:43:01;17.35;;;6.68;;
21999;SDS011;11164;48.818;2.322;2024-01-15T06:45:27;15.25;;;6.88;;
21999;SDS011;11164;48.818;2.322;2024-01-15T06:47:52;16.38;;;7.22;;
21999;SDS011;11164;48.818;2.322;2024-01-15T06:50:17;15.30;;;7.15;;
21999;SDS011;11164;48.818;2.322;2024-01-15T06:52:43;9.85;;;4.78;;
21999;SDS011;11164;48.818;2.322;2024-01-15T06:55:08;15.82;;;7.30;;
21999;SDS011;11164;48.818;2.322;2024-01-15T06:57:33;19.15;;;8.68;;
21999;SDS011;11164;48.818;2.322;2024-01-15T06:59:59;16.20;;;8.48;;
21999;SDS011;11164;48.818;2.322;2024-01-15T07:02:24;15.65;;;7.68;;
21999;SDS011;11164;48.818;2.322;2024-01-15T07:04:50;14.02;;;6.63;;
21999;SDS011;11164;48.818;2.322;2024-01-15T07:07:15;17.85;;;8.07;;
21999;SDS011;11164;48.818;2.322;2024-01-15T07:09:41;17.95;;;7.75;;
21999;SDS011;11164;48.818;2.322;2024-01-15T07:12:06;17.23;;;7.60;;
21999;SDS011;11164;48.818;2.322;2024-01-15T07:14:31;9.00;;;4.60;;
21999;SDS011;11164;48.818;2.322;2024-01-15T07:16:57;13.95;;;6.32;;
21999;SDS011;11164;48.818;2.322;2024-01-15T07:19:22;19.95;;;8.55;;
21999;SDS011;11164;48.818;2.322;2024-01-15T07:21:47;13.60;;;5.75;;
21999;SDS011;11164;48.818;2.322;2024-01-15T07:24:13;15.63;;;7.00;;
21999;SDS011;11164;48.818;2.322;2024-01-15T07:26:38;18.70;;;7.82;;
21999;SDS011;11164;48.818;2.322;2024-01-15T07:29:03;18.33;;;8.13;;
21999;SDS011;11164;48.818;2.322;2024-01-15T07:31:29;15.65;;;6.80;;
21999;SDS011;11164;48.818;2.322;2024-01-15T07:33:54;16.65;;;7.75;;
21999;SDS011;11164;48.818;2.322;2024-01-15T07:36:19;15.15;;;6.88;;
21999;SDS011;11164;48.818;2.322;2024-01-15T07:38:45;18.00;;;8.00;;
21999;SDS011;11164;48.818;2.322;2024-01-15T07:41:12;15.88;;;6.47;;
21999;SDS011;11164;48.818;2.322;2024-01-15T07:43:38;14.30;;;5.72;;
21999;SDS011;11164;48.818;2.322;2024-01-15T07:46:04;17.55;;;7.43;;
21999;SDS011;11164;48.818;2.322;2024-01-15T07:48:29;12.30;;;4.90;;
21999;SDS011;11164;48.818;2.322;2024-01-15T07:50:54;16.48;;;7.88;;
21999;SDS011;11164;48.818;2.322;2024-01-15T07:53:20;18.85;;;8.68;;
21999;SDS011;11164;48.818;2.322;2024-01-15T07:55:45;20.85;;;9.07;;
21999;SDS011;11164;48.818;2.322;2024-01-15T07:58:11;17.75;;;8.57;;
21999;SDS011;11164;48.818;2.322;2024-01-15T08:00:36;15.75;;;6.43;;
21999;SDS011;11164;48.818;2.322;2024-01-15T08:03:02;18.80;;;8.15;;
21999;SDS011;11164;48.818;2.322;2024-01-15T08:05:27;15.10;;;6.03;;
21999;SDS011;11164;48.818;2.322;2024-01-15T08:07:53;17.40;;;8.00;;
21999;SDS011;11164;48.818;2.322;2024-01-15T08:10:18;15.75;;;7.40;;
21999;SDS011;11164;48.818;2.322;2024-01-15T08:12:44;19.15;;;8.13;;
21999;SDS011;11164;48.818;2.322;2024-01-15T08:15:09;24.45;;;9.02;;
21999;SDS011;11164;48.818;2.322;2024-01-15T08:17:34;20.33;;;8.25;;
21999;SDS011;11164;48.818;2.322;2024-01-15T08:20:00;19.10;;;8.63;;
21999;SDS011;11164;48.818;2.322;2024-01-15T08:22:26;21.70;;;9.45;;
21999;SDS011;11164;48.818;2.322;2024-01-15T08:24:51;21.08;;;9.73;;
21999;SDS011;11164;48.818;2.322;2024-01-15T08:27:17;17.80;;;8.48;;
21999;SDS011;11164;48.818;2.322;2024-01-15T08:29:42;23.30;;;10.40;;
21999;SDS011;11164;48.818;2.322;2024-01-15T08:32:08;20.27;;;9.05;;
21999;SDS011;11164;48.818;2.322;2024-01-15T08:34:38;19.35;;;9.15;;
21999;SDS011;11164;48.818;2.322;2024-01-15T08:37:04;20.33;;;8.10;;
21999;SDS011;11164;48.818;2.322;2024-01-15T08:39:29;16.88;;;7.50;;
21999;SDS011;11164;48.818;2.322;2024-01-15T08:41:54;21.60;;;9.55;;
21999;SDS011;11164;48.818;2.322;2024-01-15T08:44:20;18.67;;;8.95;;
21999;SDS011;11164;48.818;2.322;2024-01-15T08:46:45;16.80;;;7.40;;
21999;SDS011;11164;48.818;2.322;2024-01-15T08:49:10;19.83;;;8.85;;
21999;SDS011;11164;48.818;2.322;2024-01-15T08:51:36;15.43;;;7.35;;
21999;SDS011;11164;48.818;2.322;2024-01-15T08:54:01;12.35;;;5.93;;
21999;SDS011;11164;48.818;2.322;2024-01-15T08:56:27;19.20;;;8.88;;
21999;SDS011;11164;48.818;2.322;2024-01-15T08:58:52;13.77;;;7.00;;
21999;SDS011;11164;48.818;2.322;2024-01-15T09:01:17;18.92;;;7.65;;
21999;SDS011;11164;48.818;2.322;2024-01-15T09:03:44;20.38;;;8.82;;
21999;SDS011;11164;48.818;2.322;2024-01-15T09:06:09;18.40;;;9.02;;
21999;SDS011;11164;48.818;2.322;2024-01-15T09:08:35;18.17;;;8.20;;
21999;SDS011;11164;48.818;2.322;2024-01-15T09:11:01;18.10;;;8.27;;
21999;SDS011;11164;48.818;2.322;2024-01-15T09:13:27;14.75;;;7.22;;
21999;SDS011;11164;48.818;2.322;2024-01-15T09:15:53;18.83;;;7.57;;
21999;SDS011;11164;48.818;2.322;2024-01-15T09:18:18;15.23;;;7.25;;
21999;SDS011;11164;48.818;2.322;2024-01-15T09:20:43;16.30;;;7.28;;
21999;SDS011;11164;48.818;2.322;2024-01-15T09:23:09;14.23;;;6.07;;
21999;SDS011;11164;48.818;2.322;2024-01-15T09:25:34;13.52;;;5.93;;
21999;SDS011;11164;48.818;2.322;2024-01-15T09:27:59;14.00;;;6.72;;
21999;SDS011;11164;48.818;2.322;2024-01-15T09:30:24;11.68;;;5.25;;
21999;SDS011;11164;48.818;2.322;2024-01-15T09:32:50;14.23;;;6.38;;
21999;SDS011;11164;48.818;2.322;2024-01-15T09:35:15;14.00;;;6.85;;
21999;SDS011;11164;48.818;2.322;2024-01-15T09:37:41;16.35;;;7.15;;
21999;SDS011;11164;48.818;2.322;2024-01-15T09:40:08;12.90;;;6.70;;
21999;SDS011;11164;48.818;2.322;2024-01-15T09:42:38;15.40;;;6.10;;
21999;SDS011;11164;48.818;2.322;2024-01-15T09:45:03;13.93;;;6.30;;
21999;SDS011;11164;48.818;2.322;2024-01-15T09:47:29;13.68;;;6.78;;
21999;SDS011;11164;48.818;2.322;2024-01-15T09:49:55;14.57;;;6.18;;
21999;SDS011;11164;48.818;2.322;2024-01-15T09:52:23;11.60;;;5.63;;
21999;SDS011;11164;48.818;2.322;2024-01-15T09:54:50;13.48;;;5.35;;
21999;SDS011;11164;48.818;2.322;2024-01-15T09:57:15;14.57;;;6.88;;
21999;SDS011;11164;48.818;2.322;2024-01-15T09:59:41;14.27;;;6.32;;
21999;SDS011;11164;48.818;2.322;2024-01-15T10:02:08;14.80;;;6.47;;
21999;SDS011;11164;48.818;2.322;2024-01-15T10:04:39;15.50;;;5.95;;
21999;SDS011;11164;48.818;2.322;2024-01-15T10:07:04;14.75;;;6.10;;
21999;SDS011;11164;48.818;2.322;2024-01-15T10:09:31;15.25;;;5.35;;
21999;SDS011;11164;48.818;2.322;2024-01-15T10:11:56;11.85;;;5.50;;
21999;SDS011;11164;48.818;2.322;2024-01-15T10:14:22;9.68;;;4.45;;
21999;SDS011;11164;48.818;2.322;2024-01-15T10:16:48;9.52;;;4.70;;
21999;SDS011;11164;48.818;2.322;2024-01-15T10:19:13;10.68;;;4.75;;
21999;SDS011;11164;48.818;2.322;2024-01-15T10:21:38;11.75;;;5.25;;
21999;SDS011;11164;48.818;2.322;2024-01-15T10:24:04;12.90;;;5.30;;
21999;SDS011;11164;48.818;2.322;2024-01-15T10:26:30;12.98;;;5.30;;
21999;SDS011;11164;48.818;2.322;2024-01-15T10:28:56;9.25;;;4.32;;
21999;SDS011;11164;48.818;2.322;2024-01-15T10:31:21;10.80;;;4.70;;
21999;SDS011;11164;48.818;2.322;2024-01-15T10:33:50;7.75;;;3.35;;
21999;SDS011;11164;48.818;2.322;2024-01-15T10:36:16;7.25;;;3.70;;
21999;SDS011;11164;48.818;2.322;2024-01-15T10:38:45;9.57;;;3.80;;
21999;SDS011;11164;48.818;2.322;2024-01-15T10:41:11;11.52;;;3.15;;
21999;SDS011;11164;48.818;2.322;2024-01-15T10:43:37;9.13;;;2.85;;
21999;SDS011;11164;48.818;2.322;2024-01-15T10:46:03;8.60;;;2.65;;
21999;SDS011;11164;48.818;2.322;2024-01-15T10:48:29;5.50;;;1.83;;
21999;SDS011;11164;48.818;2.322;2024-01-15T10:50:56;6.03;;;2.70;;
21999;SDS011;11164;48.818;2.322;2024-01-15T10:53:23;6.38;;;2.55;;
21999;SDS011;11164;48.818;2.322;2024-01-15T10:55:53;6.32;;;1.90;;
21999;SDS011;11164;48.818;2.322;2024-01-15T10:58:18;5.57;;;2.22;;
21999;SDS011;11164;48.818;2.322;2024-01-15T11:00:45;6.93;;;2.60;;
21999;SDS011;11164;48.818;2.322;2024-01-15T11:03:11;6.82;;;2.50;;
21999;SDS011;11164;48.818;2.322;2024-01-15T11:05:41;5.18;;;2.13;;
21999;SDS011;11164;48.818;2.322;2024-01-15T11:08:08;6.07;;;2.67;;
21999;SDS011;11164;48.818;2.322;2024-01-15T11:10:38;7.15;;;2.63;;
21999;SDS011;11164;48.818;2.322;2024-01-15T11:13:08;8.45;;;2.95;;
21999;SDS011;11164;48.818;2.322;2024-01-15T11:16:01;8.68;;;3.00;;
21999;SDS011;11164;48.818;2.322;2024-01-15T11:18:29;4.90;;;1.88;;
21999;SDS011;11164;48.818;2.322;2024-01-15T11:23:47;6.13;;;2.20;;
21999;SDS011;11164;48.818;2.322;2024-01-15T11:34:19;6.78;;;2.30;;
21999;SDS011;11164;48.818;2.322;2024-01-15T11:41:57;4.18;;;1.35;;
21999;SDS011;11164;48.818;2.322;2024-01-15T11:44:23;5.57;;;1.60;;
21999;SDS011;11164;48.818;2.322;2024-01-15T11:47:05;5.70;;;1.58;;
21999;SDS011;11164;48.818;2.322;2024-01-15T11:52:37;6.27;;;2.00;;
21999;SDS011;11164;48.818;2.322;2024-01-15T11:55:14;6.07;;;1.60;;
21999;SDS011;11164;48.818;2.322;2024-01-15T11:57:51;3.75;;;1.63;;
21999;SDS011;11164;48.818;2.322;2024-01-15T12:02:45;3.90;;;1.20;;
21999;SDS011;11164;48.818;2.322;2024-01-15T12:05:12;5.65;;;1.63;;
21999;SDS011;11164;48.818;2.322;2024-01-15T12:07:40;6.40;;;1.23;;
21999;SDS011;11164;48.818;2.322;2024-01-15T12:10:40;2.63;;;1.00;;
21999;SDS011;11164;48.818;2.322;2024-01-15T12:12:59;4.22;;;1.30;;
21999;SDS011;11164;48.818;2.322;2024-01-15T12:15:29;4.60;;;1.25;;
21999;SDS011;11164;48.818;2.322;2024-01-15T12:17:55;4.25;;;1.50;;
21999;SDS011;11164;48.818;2.322;2024-01-15T12:20:25;6.05;;;1.60;;
21999;SDS011;11164;48.818;2.322;2024-01-15T12:22:51;4.30;;;1.45;;
21999;SDS011;11164;48.818;2.322;2024-01-15T12:25:16;4.20;;;1.67;;
21999;SDS011;11164;48.818;2.322;2024-01-15T12:27:42;5.75;;;1.25;;
21999;SDS011;11164;48.818;2.322;2024-01-15T12:30:10;3.17;;;1.05;;
21999;SDS011;11164;48.818;2.322;2024-01-15T12:32:36;3.38;;;1.10;;
21999;SDS011;11164;48.818;2.322;2024-01-15T12:35:02;3.42;;;0.82;;
21999;SDS011;11164;48.818;2.322;2024-01-15T12:37:27;4.15;;;1.05;;
21999;SDS011;11164;48.818;2.322;2024-01-15T12:39:54;2.95;;;0.70;;
21999;SDS011;11164;48.818;2.322;2024-01-15T12:42:20;5.43;;;1.20;;
21999;SDS011;11164;48.818;2.322;2024-01-15T12:44:46;3.67;;;1.00;;
21999;SDS011;11164;48.818;2.322;2024-01-15T12:47:11;4.60;;;0.90;;
21999;SDS011;11164;48.818;2.322;2024-01-15T12:49:37;2.55;;;1.00;;
21999;SDS011;11164;48.818;2.322;2024-01-15T12:52:03;3.55;;;1.00;;
21999;SDS011;11164;48.818;2.322;2024-01-15T12:54:28;3.72;;;1.20;;
21999;SDS011;11164;48.818;2.322;2024-01-15T12:56:54;3.83;;;1.15;;
21999;SDS011;11164;48.818;2.322;2024-01-15T12:59:19;3.83;;;1.23;;
21999;SDS011;11164;48.818;2.322;2024-01-15T13:01:45;3.45;;;1.23;;
21999;SDS011;11164;48.818;2.322;2024-01-15T13:04:11;3.05;;;1.02;;
21999;SDS011;11164;48.818;2.322;2024-01-15T13:06:45;2.75;;;0.98;;
21999;SDS011;11164;48.818;2.322;2024-01-15T13:09:10;3.75;;;1.10;;
21999;SDS011;11164;48.818;2.322;2024-01-15T13:11:37;5.55;;;1.50;;
21999;SDS011;11164;48.818;2.322;2024-01-15T13:14:03;3.25;;;1.23;;
21999;SDS011;11164;48.818;2.322;2024-01-15T13:16:28;5.47;;;1.30;;
21999;SDS011;11164;48.818;2.322;2024-01-15T13:18:54;3.08;;;1.08;;
21999;SDS011;11164;48.818;2.322;2024-01-15T13:21:20;4.50;;;1.27;;
21999;SDS011;11164;48.818;2.322;2024-01-15T13:23:46;4.53;;;1.15;;
21999;SDS011;11164;48.818;2.322;2024-01-15T13:26:11;2.83;;;0.80;;
21999;SDS011;11164;48.818;2.322;2024-01-15T13:28:37;4.20;;;1.23;;
21999;SDS011;11164;48.818;2.322;2024-01-15T13:31:02;6.45;;;1.95;;
21999;SDS011;11164;48.818;2.322;2024-01-15T13:33:29;4.05;;;0.98;;
21999;SDS011;11164;48.818;2.322;2024-01-15T13:35:55;4.63;;;1.40;;
21999;SDS011;11164;48.818;2.322;2024-01-15T13:38:20;2.08;;;0.90;;
21999;SDS011;11164;48.818;2.322;2024-01-15T13:40:46;4.97;;;1.10;;
21999;SDS011;11164;48.818;2.322;2024-01-15T13:43:11;4.07;;;1.00;;
21999;SDS011;11164;48.818;2.322;2024-01-15T13:45:39;3.00;;;0.95;;
21999;SDS011;11164;48.818;2.322;2024-01-15T13:48:04;4.10;;;1.00;;
21999;SDS011;11164;48.818;2.322;2024-01-15T13:50:31;3.67;;;1.00;;
21999;SDS011;11164;48.818;2.322;2024-01-15T13:52:56;4.35;;;1.13;;
21999;SDS011;11164;48.818;2.322;2024-01-15T13:55:22;3.50;;;1.02;;
21999;SDS011;11164;48.818;2.322;2024-01-15T13:57:47;3.63;;;1.23;;
21999;SDS011;11164;48.818;2.322;2024-01-15T14:00:13;2.85;;;0.85;;
21999;SDS011;11164;48.818;2.322;2024-01-15T14:02:43;2.85;;;0.80;;
21999;SDS011;11164;48.818;2.322;2024-01-15T14:05:09;2.55;;;0.90;;
21999;SDS011;11164;48.818;2.322;2024-01-15T14:07:37;5.63;;;1.00;;
21999;SDS011;11164;48.818;2.322;2024-01-15T14:10:08;2.90;;;0.93;;
21999;SDS011;11164;48.818;2.322;2024-01-15T14:12:34;2.10;;;0.90;;
21999;SDS011;11164;48.818;2.322;2024-01-15T14:15:01;4.57;;;0.90;;
21999;SDS011;11164;48.818;2.322;2024-01-15T14:17:27;2.50;;;0.93;;
21999;SDS011;11164;48.818;2.322;2024-01-15T14:19:52;4.43;;;1.20;;
21999;SDS011;11164;48.818;2.322;2024-01-15T14:22:18;2.97;;;1.00;;
21999;SDS011;11164;48.818;2.322;2024-01-15T14:24:43;3.00;;;0.90;;
21999;SDS011;11164;48.818;2.322;2024-01-15T14:27:09;2.88;;;0.90;;
21999;SDS011;11164;48.818;2.322;2024-01-15T14:29:35;3.10;;;1.00;;
21999;SDS011;11164;48.818;2.322;2024-01-15T14:32:00;3.10;;;0.70;;
21999;SDS011;11164;48.818;2.322;2024-01-15T14:34:27;3.67;;;1.00;;
21999;SDS011;11164;48.818;2.322;2024-01-15T14:36:52;2.47;;;0.80;;
21999;SDS011;11164;48.818;2.322;2024-01-15T14:39:21;2.63;;;0.80;;
21999;SDS011;11164;48.818;2.322;2024-01-15T14:41:46;2.60;;;0.80;;
21999;SDS011;11164;48.818;2.322;2024-01-15T14:44:12;3.50;;;0.70;;
21999;SDS011;11164;48.818;2.322;2024-01-15T14:46:38;3.42;;;0.95;;
21999;SDS011;11164;48.818;2.322;2024-01-15T14:49:04;2.88;;;0.60;;
21999;SDS011;11164;48.818;2.322;2024-01-15T14:51:29;1.83;;;0.65;;